sensor_id;sensor_type;location;lat;lon;timestamp;temperature;humidity
74178;DHT22;62540;48.456;-4.456;2023-08-20T00:00:58;21.11;75.11
74178;DHT22;62540;48.456;-4.456;2023-08-20T00:03:24;21.10;75.40
74178;DHT22;62540;48.456;-4.456;2023-08-20T00:05:49;21.08;75.25
74178;DHT22;62540;48.456;-4.456;2023-08-20T00:08:15;21.06;75.65
74178;DHT22;62540;48.456;-4.456;2023-08-20T00:10:41;21.03;75.93
74178;DHT22;62540;48.456;-4.456;2023-08-20T00:13:06;20.97;75.67
74178;DHT22;62540;48.456;-4.456;2023-08-20T00:15:32;20.94;75.76
74178;DHT22;62540;48.456;-4.456;2023-08-20T00:17:57;20.93;76.22
74178;DHT22;62540;48.456;-4.456;2023-08-20T00:20:24;20.93;76.31
74178;DHT22;62540;48.456;-4.456;2023-08-20T00:22:50;20.90;76.16
74178;DHT22;62540;48.456;-4.456;2023-08-20T00:25:16;20.87;76.40
74178;DHT22;62540;48.456;-4.456;2023-08-20T00:27:43;20.93;75.96
74178;DHT22;62540;48.456;-4.456;2023-08-20T00:30:11;20.96;75.90
74178;DHT22;62540;48.456;-4.456;2023-08-20T00:32:37;21.03;75.71
74178;DHT22;62540;48.456;-4.456;2023-08-20T00:35:02;21.06;75.64
74178;DHT22;62540;48.456;-4.456;2023-08-20T00:37:29;21.08;75.70
74178;DHT22;62540;48.456;-4.456;2023-08-20T00:39:54;21.10;75.59
74178;DHT22;62540;48.456;-4.456;2023-08-20T00:42:19;21.12;75.51
74178;DHT22;62540;48.456;-4.456;2023-08-20T00:44:45;21.10;76.16
74178;DHT22;62540;48.456;-4.456;2023-08-20T00:47:10;21.07;75.74
74178;DHT22;62540;48.456;-4.456;2023-08-20T00:49:37;21.04;75.85
74178;DHT22;62540;48.456;-4.456;2023-08-20T00:52:04;21.07;75.76
74178;DHT22;62540;48.456;-4.456;2023-08-20T00:54:31;21.06;75.92
74178;DHT22;62540;48.456;-4.456;2023-08-20T00:56:59;21.01;75.99
74178;DHT22;62540;48.456;-4.456;2023-08-20T00:59:25;20.97;76.31
74178;DHT22;62540;48.456;-4.456;2023-08-20T01:01:50;20.90;76.16
74178;DHT22;62540;48.456;-4.456;2023-08-20T01:04:16;20.89;76.29
74178;DHT22;62540;48.456;-4.456;2023-08-20T01:09:41;20.81;76.35
74178;DHT22;62540;48.456;-4.456;2023-08-20T01:12:09;20.86;76.17
74178;DHT22;62540;48.456;-4.456;2023-08-20T01:14:35;20.79;76.37
74178;DHT22;62540;48.456;-4.456;2023-08-20T01:17:01;20.73;76.50
74178;DHT22;62540;48.456;-4.456;2023-08-20T01:19:26;20.70;76.61
74178;DHT22;62540;48.456;-4.456;2023-08-20T01:22:20;20.73;76.65
74178;DHT22;62540;48.456;-4.456;2023-08-20T01:25:15;20.79;76.23
74178;DHT22;62540;48.456;-4.456;2023-08-20T01:27:57;20.80;76.44
74178;DHT22;62540;48.456;-4.456;2023-08-20T01:30:27;20.79;76.26
74178;DHT22;62540;48.456;-4.456;2023-08-20T01:32:53;20.84;76.00
74178;DHT22;62540;48.456;-4.456;2023-08-20T01:35:19;20.89;75.85
74178;DHT22;62540;48.456;-4.456;2023-08-20T01:37:45;20.83;75.84
74178;DHT22;62540;48.456;-4.456;2023-08-20T01:40:10;20.81;75.96
74178;DHT22;62540;48.456;-4.456;2023-08-20T01:42:37;20.86;75.88
74178;DHT22;62540;48.456;-4.456;2023-08-20T01:45:03;20.86;75.82
74178;DHT22;62540;48.456;-4.456;2023-08-20T01:47:28;20.94;75.84
74178;DHT22;62540;48.456;-4.456;2023-08-20T01:49:54;20.94;75.75
74178;DHT22;62540;48.456;-4.456;2023-08-20T01:52:19;20.93;75.71
74178;DHT22;62540;48.456;-4.456;2023-08-20T01:54:45;20.94;75.69
74178;DHT22;62540;48.456;-4.456;2023-08-20T01:57:10;20.93;75.86
74178;DHT22;62540;48.456;-4.456;2023-08-20T01:59:35;20.86;76.05
74178;DHT22;62540;48.456;-4.456;2023-08-20T02:02:01;20.89;75.93
74178;DHT22;62540;48.456;-4.456;2023-08-20T02:04:26;20.90;75.93
74178;DHT22;62540;48.456;-4.456;2023-08-20T02:06:52;20.91;75.88
74178;DHT22;62540;48.456;-4.456;2023-08-20T02:09:17;20.94;75.73
74178;DHT22;62540;48.456;-4.456;2023-08-20T02:11:44;20.90;75.82
74178;DHT22;62540;48.456;-4.456;2023-08-20T02:14:10;20.87;75.81
74178;DHT22;62540;48.456;-4.456;2023-08-20T02:16:35;20.86;75.86
74178;DHT22;62540;48.456;-4.456;2023-08-20T02:19:02;20.84;75.94
74178;DHT22;62540;48.456;-4.456;2023-08-20T02:21:28;20.83;75.95
74178;DHT22;62540;48.456;-4.456;2023-08-20T02:23:54;20.84;75.90
74178;DHT22;62540;48.456;-4.456;2023-08-20T02:26:19;20.86;75.97
74178;DHT22;62540;48.456;-4.456;2023-08-20T02:28:44;20.79;76.09
74178;DHT22;62540;48.456;-4.456;2023-08-20T02:31:10;20.80;76.05
74178;DHT22;62540;48.456;-4.456;2023-08-20T02:33:35;20.77;76.13
74178;DHT22;62540;48.456;-4.456;2023-08-20T02:36:02;20.75;76.68
74178;DHT22;62540;48.456;-4.456;2023-08-20T02:38:28;20.65;76.72
74178;DHT22;62540;48.456;-4.456;2023-08-20T02:40:54;20.55;76.83
74178;DHT22;62540;48.456;-4.456;2023-08-20T02:43:19;20.56;76.78
74178;DHT22;62540;48.456;-4.456;2023-08-20T02:45:44;20.60;76.67
74178;DHT22;62540;48.456;-4.456;2023-08-20T02:48:10;20.56;76.91
74178;DHT22;62540;48.456;-4.456;2023-08-20T02:50:36;20.60;76.64
74178;DHT22;62540;48.456;-4.456;2023-08-20T02:53:01;20.65;76.54
74178;DHT22;62540;48.456;-4.456;2023-08-20T02:55:27;20.66;76.51
74178;DHT22;62540;48.456;-4.456;2023-08-20T02:57:52;20.63;76.67
74178;DHT22;62540;48.456;-4.456;2023-08-20T03:00:17;20.65;76.51
74178;DHT22;62540;48.456;-4.456;2023-08-20T03:02:43;20.72;76.72
74178;DHT22;62540;48.456;-4.456;2023-08-20T03:05:09;20.69;76.64
74178;DHT22;62540;48.456;-4.456;2023-08-20T03:07:35;20.65;76.66
74178;DHT22;62540;48.456;-4.456;2023-08-20T03:10:00;20.63;76.82
74178;DHT22;62540;48.456;-4.456;2023-08-20T03:12:26;20.66;76.72
74178;DHT22;62540;48.456;-4.456;2023-08-20T03:14:51;20.65;76.85
74178;DHT22;62540;48.456;-4.456;2023-08-20T03:17:17;20.59;77.27
74178;DHT22;62540;48.456;-4.456;2023-08-20T03:19:59;20.60;77.27
74178;DHT22;62540;48.456;-4.456;2023-08-20T03:22:26;20.62;77.08
74178;DHT22;62540;48.456;-4.456;2023-08-20T03:24:52;20.57;77.48
74178;DHT22;62540;48.456;-4.456;2023-08-20T03:27:18;20.51;77.90
74178;DHT22;62540;48.456;-4.456;2023-08-20T03:29:44;20.52;77.68
74178;DHT22;62540;48.456;-4.456;2023-08-20T03:32:10;20.57;77.34
74178;DHT22;62540;48.456;-4.456;2023-08-20T03:34:36;20.55;77.72
74178;DHT22;62540;48.456;-4.456;2023-08-20T03:37:01;20.55;77.57
74178;DHT22;62540;48.456;-4.456;2023-08-20T03:39:27;20.53;77.48
74178;DHT22;62540;48.456;-4.456;2023-08-20T03:41:53;20.57;77.51
74178;DHT22;62540;48.456;-4.456;2023-08-20T03:44:19;20.60;77.37
74178;DHT22;62540;48.456;-4.456;2023-08-20T03:46:44;20.65;77.29
74178;DHT22;62540;48.456;-4.456;2023-08-20T03:49:09;20.70;77.28
74178;DHT22;62540;48.456;-4.456;2023-08-20T03:51:35;20.73;77.19
74178;DHT22;62540;48.456;-4.456;2023-08-20T03:54:00;20.66;77.56
74178;DHT22;62540;48.456;-4.456;2023-08-20T03:56:26;20.62;77.54
74178;DHT22;62540;48.456;-4.456;2023-08-20T03:58:51;20.60;77.52
74178;DHT22;62540;48.456;-4.456;2023-08-20T04:01:18;20.57;77.69
74178;DHT22;62540;48.456;-4.456;2023-08-20T04:03:43;20.53;77.70
74178;DHT22;62540;48.456;-4.456;2023-08-20T04:06:08;20.52;77.58
74178;DHT22;62540;48.456;-4.456;2023-08-20T04:08:34;20.48;77.76
74178;DHT22;62540;48.456;-4.456;2023-08-20T04:10:59;20.43;77.97
74178;DHT22;62540;48.456;-4.456;2023-08-20T04:13:25;20.46;77.84
74178;DHT22;62540;48.456;-4.456;2023-08-20T04:15:51;20.43;77.78
74178;DHT22;62540;48.456;-4.456;2023-08-20T04:18:16;20.39;78.33
74178;DHT22;62540;48.456;-4.456;2023-08-20T04:20:42;20.35;78.26
74178;DHT22;62540;48.456;-4.456;2023-08-20T04:23:07;20.33;77.98
74178;DHT22;62540;48.456;-4.456;2023-08-20T04:25:33;20.42;77.86
74178;DHT22;62540;48.456;-4.456;2023-08-20T04:27:59;20.45;77.91
74178;DHT22;62540;48.456;-4.456;2023-08-20T04:30:24;20.45;77.90
74178;DHT22;62540;48.456;-4.456;2023-08-20T04:32:49;20.35;78.71
74178;DHT22;62540;48.456;-4.456;2023-08-20T04:35:15;20.24;78.50
74178;DHT22;62540;48.456;-4.456;2023-08-20T04:37:40;20.26;78.39
74178;DHT22;62540;48.456;-4.456;2023-08-20T04:40:06;20.25;78.29
74178;DHT22;62540;48.456;-4.456;2023-08-20T04:42:33;20.29;78.22
74178;DHT22;62540;48.456;-4.456;2023-08-20T04:44:58;20.31;78.21
74178;DHT22;62540;48.456;-4.456;2023-08-20T04:47:24;20.32;78.16
74178;DHT22;62540;48.456;-4.456;2023-08-20T04:49:49;20.38;77.99
74178;DHT22;62540;48.456;-4.456;2023-08-20T04:52:14;20.39;78.01
74178;DHT22;62540;48.456;-4.456;2023-08-20T04:54:40;20.45;77.84
74178;DHT22;62540;48.456;-4.456;2023-08-20T04:57:05;20.46;77.74
74178;DHT22;62540;48.456;-4.456;2023-08-20T04:59:32;20.43;77.71
74178;DHT22;62540;48.456;-4.456;2023-08-20T05:01:57;20.41;77.79
74178;DHT22;62540;48.456;-4.456;2023-08-20T05:04:23;20.38;77.83
74178;DHT22;62540;48.456;-4.456;2023-08-20T05:06:48;20.39;77.91
74178;DHT22;62540;48.456;-4.456;2023-08-20T05:09:14;20.38;77.81
74178;DHT22;62540;48.456;-4.456;2023-08-20T05:11:41;20.42;77.79
74178;DHT22;62540;48.456;-4.456;2023-08-20T05:14:06;20.38;77.90
74178;DHT22;62540;48.456;-4.456;2023-08-20T05:16:31;20.35;77.96
74178;DHT22;62540;48.456;-4.456;2023-08-20T05:18:57;20.35;78.04
74178;DHT22;62540;48.456;-4.456;2023-08-20T05:21:22;20.38;78.06
74178;DHT22;62540;48.456;-4.456;2023-08-20T05:23:48;20.29;78.18
74178;DHT22;62540;48.456;-4.456;2023-08-20T05:26:13;20.20;78.29
74178;DHT22;62540;48.456;-4.456;2023-08-20T05:28:38;20.21;78.21
74178;DHT22;62540;48.456;-4.456;2023-08-20T05:31:04;20.22;78.20
74178;DHT22;62540;48.456;-4.456;2023-08-20T05:33:29;20.25;78.20
74178;DHT22;62540;48.456;-4.456;2023-08-20T05:35:54;20.28;77.95
74178;DHT22;62540;48.456;-4.456;2023-08-20T05:38:20;20.29;77.87
74178;DHT22;62540;48.456;-4.456;2023-08-20T05:40:46;20.32;77.89
74178;DHT22;62540;48.456;-4.456;2023-08-20T05:43:11;20.29;77.85
74178;DHT22;62540;48.456;-4.456;2023-08-20T05:45:36;20.35;77.86
74178;DHT22;62540;48.456;-4.456;2023-08-20T05:48:02;20.36;77.73
74178;DHT22;62540;48.456;-4.456;2023-08-20T05:50:27;20.41;77.69
74178;DHT22;62540;48.456;-4.456;2023-08-20T05:52:53;20.43;77.62
74178;DHT22;62540;48.456;-4.456;2023-08-20T05:55:18;20.42;77.65
74178;DHT22;62540;48.456;-4.456;2023-08-20T05:57:44;20.46;77.64
74178;DHT22;62540;48.456;-4.456;2023-08-20T06:00:10;20.48;77.58
74178;DHT22;62540;48.456;-4.456;2023-08-20T06:02:36;20.39;77.61
74178;DHT22;62540;48.456;-4.456;2023-08-20T06:05:02;20.36;77.81
74178;DHT22;62540;48.456;-4.456;2023-08-20T06:07:30;20.32;77.83
74178;DHT22;62540;48.456;-4.456;2023-08-20T06:09:55;20.31;77.98
74178;DHT22;62540;48.456;-4.456;2023-08-20T06:12:22;20.32;77.87
74178;DHT22;62540;48.456;-4.456;2023-08-20T06:14:47;20.36;77.74
74178;DHT22;62540;48.456;-4.456;2023-08-20T06:17:12;20.35;77.76
74178;DHT22;62540;48.456;-4.456;2023-08-20T06:19:38;20.42;77.59
74178;DHT22;62540;48.456;-4.456;2023-08-20T06:22:03;20.43;77.45
74178;DHT22;62540;48.456;-4.456;2023-08-20T06:24:29;20.53;77.31
74178;DHT22;62540;48.456;-4.456;2023-08-20T06:26:54;20.62;77.26
74178;DHT22;62540;48.456;-4.456;2023-08-20T06:29:19;20.81;77.14
74178;DHT22;62540;48.456;-4.456;2023-08-20T06:31:47;20.97;76.82
74178;DHT22;62540;48.456;-4.456;2023-08-20T06:34:13;21.11;76.48
74178;DHT22;62540;48.456;-4.456;2023-08-20T06:36:38;21.21;76.31
74178;DHT22;62540;48.456;-4.456;2023-08-20T06:39:04;21.31;76.24
74178;DHT22;62540;48.456;-4.456;2023-08-20T06:41:29;21.47;75.74
74178;DHT22;62540;48.456;-4.456;2023-08-20T06:43:54;21.66;75.97
74178;DHT22;62540;48.456;-4.456;2023-08-20T06:46:20;21.81;75.68
74178;DHT22;62540;48.456;-4.456;2023-08-20T06:48:45;21.89;75.36
74178;DHT22;62540;48.456;-4.456;2023-08-20T06:51:14;21.88;75.38
74178;DHT22;62540;48.456;-4.456;2023-08-20T06:53:43;21.86;75.25
74178;DHT22;62540;48.456;-4.456;2023-08-20T06:56:08;21.78;74.69
74178;DHT22;62540;48.456;-4.456;2023-08-20T06:58:35;21.74;75.03
74178;DHT22;62540;48.456;-4.456;2023-08-20T07:01:00;21.59;74.69
74178;DHT22;62540;48.456;-4.456;2023-08-20T07:03:37;21.52;75.08
74178;DHT22;62540;48.456;-4.456;2023-08-20T07:06:03;21.51;74.65
74178;DHT22;62540;48.456;-4.456;2023-08-20T07:08:28;21.65;74.80
74178;DHT22;62540;48.456;-4.456;2023-08-20T07:10:54;21.85;74.29
74178;DHT22;62540;48.456;-4.456;2023-08-20T07:13:19;22.41;73.96
74178;DHT22;62540;48.456;-4.456;2023-08-20T07:15:45;22.94;73.01
74178;DHT22;62540;48.456;-4.456;2023-08-20T07:18:10;23.38;72.00
74178;DHT22;62540;48.456;-4.456;2023-08-20T07:20:38;23.50;71.42
74178;DHT22;62540;48.456;-4.456;2023-08-20T07:23:04;23.57;71.08
74178;DHT22;62540;48.456;-4.456;2023-08-20T07:25:29;23.47;70.96
74178;DHT22;62540;48.456;-4.456;2023-08-20T07:27:54;23.34;71.15
74178;DHT22;62540;48.456;-4.456;2023-08-20T07:30:24;23.29;71.42
74178;DHT22;62540;48.456;-4.456;2023-08-20T07:32:50;23.49;71.15
74178;DHT22;62540;48.456;-4.456;2023-08-20T07:35:15;23.64;70.89
74178;DHT22;62540;48.456;-4.456;2023-08-20T07:37:41;24.05;70.42
74178;DHT22;62540;48.456;-4.456;2023-08-20T07:40:06;24.02;68.03
74178;DHT22;62540;48.456;-4.456;2023-08-20T07:42:32;23.97;70.30
74178;DHT22;62540;48.456;-4.456;2023-08-20T07:44:57;23.84;69.66
74178;DHT22;62540;48.456;-4.456;2023-08-20T07:47:23;23.63;68.75
74178;DHT22;62540;48.456;-4.456;2023-08-20T07:49:48;23.39;69.90
74178;DHT22;62540;48.456;-4.456;2023-08-20T07:52:13;23.36;70.46
74178;DHT22;62540;48.456;-4.456;2023-08-20T07:54:39;23.34;70.05
74178;DHT22;62540;48.456;-4.456;2023-08-20T07:57:04;23.39;70.44
74178;DHT22;62540;48.456;-4.456;2023-08-20T07:59:30;23.42;70.32
74178;DHT22;62540;48.456;-4.456;2023-08-20T08:01:55;23.42;69.90
74178;DHT22;62540;48.456;-4.456;2023-08-20T08:04:21;23.45;69.86
74178;DHT22;62540;48.456;-4.456;2023-08-20T08:06:46;23.96;69.43
74178;DHT22;62540;48.456;-4.456;2023-08-20T08:09:25;24.28;69.18
74178;DHT22;62540;48.456;-4.456;2023-08-20T08:11:51;24.48;68.47
74178;DHT22;62540;48.456;-4.456;2023-08-20T08:14:17;24.52;67.44
74178;DHT22;62540;48.456;-4.456;2023-08-20T08:16:43;24.46;68.87
74178;DHT22;62540;48.456;-4.456;2023-08-20T08:19:09;24.45;68.39
74178;DHT22;62540;48.456;-4.456;2023-08-20T08:21:35;24.83;67.93
74178;DHT22;62540;48.456;-4.456;2023-08-20T08:24:00;25.23;67.16
74178;DHT22;62540;48.456;-4.456;2023-08-20T08:26:25;25.23;65.15
74178;DHT22;62540;48.456;-4.456;2023-08-20T08:28:51;25.49;66.77
74178;DHT22;62540;48.456;-4.456;2023-08-20T08:31:16;26.09;65.12
74178;DHT22;62540;48.456;-4.456;2023-08-20T08:33:41;26.40;61.98
74178;DHT22;62540;48.456;-4.456;2023-08-20T08:36:07;26.71;64.81
74178;DHT22;62540;48.456;-4.456;2023-08-20T08:38:32;27.15;61.70
74178;DHT22;62540;48.456;-4.456;2023-08-20T08:41:00;27.64;60.25
74178;DHT22;62540;48.456;-4.456;2023-08-20T08:43:27;27.61;60.17
74178;DHT22;62540;48.456;-4.456;2023-08-20T08:45:55;27.33;61.68
74178;DHT22;62540;48.456;-4.456;2023-08-20T08:48:21;27.23;61.65
74178;DHT22;62540;48.456;-4.456;2023-08-20T08:50:46;27.54;61.77
74178;DHT22;62540;48.456;-4.456;2023-08-20T08:53:13;28.17;60.85
74178;DHT22;62540;48.456;-4.456;2023-08-20T08:55:38;28.72;59.48
74178;DHT22;62540;48.456;-4.456;2023-08-20T08:58:04;29.10;59.87
74178;DHT22;62540;48.456;-4.456;2023-08-20T09:00:29;29.20;54.82
74178;DHT22;62540;48.456;-4.456;2023-08-20T09:02:56;28.93;58.35
74178;DHT22;62540;48.456;-4.456;2023-08-20T09:05:22;28.63;58.61
74178;DHT22;62540;48.456;-4.456;2023-08-20T09:07:55;28.59;58.38
74178;DHT22;62540;48.456;-4.456;2023-08-20T09:10:21;28.60;58.25
74178;DHT22;62540;48.456;-4.456;2023-08-20T09:12:47;28.97;58.40
74178;DHT22;62540;48.456;-4.456;2023-08-20T09:15:13;29.44;57.64
74178;DHT22;62540;48.456;-4.456;2023-08-20T09:17:41;29.65;56.66
74178;DHT22;62540;48.456;-4.456;2023-08-20T09:20:07;29.41;56.31
74178;DHT22;62540;48.456;-4.456;2023-08-20T09:22:35;28.90;55.81
74178;DHT22;62540;48.456;-4.456;2023-08-20T09:25:01;28.35;55.36
74178;DHT22;62540;48.456;-4.456;2023-08-20T09:27:28;28.55;57.09
74178;DHT22;62540;48.456;-4.456;2023-08-20T09:29:54;28.69;56.96
74178;DHT22;62540;48.456;-4.456;2023-08-20T09:32:25;28.59;57.19
74178;DHT22;62540;48.456;-4.456;2023-08-20T09:34:53;28.44;57.23
74178;DHT22;62540;48.456;-4.456;2023-08-20T09:37:20;28.29;56.51
74178;DHT22;62540;48.456;-4.456;2023-08-20T09:39:46;28.44;57.28
74178;DHT22;62540;48.456;-4.456;2023-08-20T09:42:13;28.39;57.04
74178;DHT22;62540;48.456;-4.456;2023-08-20T09:44:42;28.34;56.62
74178;DHT22;62540;48.456;-4.456;2023-08-20T09:47:12;28.49;56.83
74178;DHT22;62540;48.456;-4.456;2023-08-20T09:49:46;28.77;55.96
74178;DHT22;62540;48.456;-4.456;2023-08-20T09:52:30;29.31;56.15
74178;DHT22;62540;48.456;-4.456;2023-08-20T09:57:38;28.89;55.91
74178;DHT22;62540;48.456;-4.456;2023-08-20T10:00:08;28.69;55.68
74178;DHT22;62540;48.456;-4.456;2023-08-20T10:02:38;28.63;56.53
74178;DHT22;62540;48.456;-4.456;2023-08-20T10:05:07;28.63;54.98
74178;DHT22;62540;48.456;-4.456;2023-08-20T10:07:33;28.62;56.16
74178;DHT22;62540;48.456;-4.456;2023-08-20T10:10:02;28.65;56.42
74178;DHT22;62540;48.456;-4.456;2023-08-20T10:12:29;28.72;56.06
74178;DHT22;62540;48.456;-4.456;2023-08-20T10:14:58;28.86;55.50
74178;DHT22;62540;48.456;-4.456;2023-08-20T10:17:24;29.02;55.94
74178;DHT22;62540;48.456;-4.456;2023-08-20T10:19:51;29.20;55.74
74178;DHT22;62540;48.456;-4.456;2023-08-20T10:22:18;29.15;55.25
74178;DHT22;62540;48.456;-4.456;2023-08-20T10:24:51;29.58;54.97
74178;DHT22;62540;48.456;-4.456;2023-08-20T10:27:32;29.83;54.40
74178;DHT22;62540;48.456;-4.456;2023-08-20T10:29:59;30.20;51.71
74178;DHT22;62540;48.456;-4.456;2023-08-20T10:35:12;30.63;52.04
74178;DHT22;62540;48.456;-4.456;2023-08-20T10:37:37;30.91;51.35
74178;DHT22;62540;48.456;-4.456;2023-08-20T10:40:06;30.91;51.87
74178;DHT22;62540;48.456;-4.456;2023-08-20T10:42:31;30.84;52.14
74178;DHT22;62540;48.456;-4.456;2023-08-20T10:45:06;31.08;49.77
74178;DHT22;62540;48.456;-4.456;2023-08-20T10:50:08;31.14;50.99
74178;DHT22;62540;48.456;-4.456;2023-08-20T10:52:39;31.35;50.99
74178;DHT22;62540;48.456;-4.456;2023-08-20T10:55:07;31.49;48.79
74178;DHT22;62540;48.456;-4.456;2023-08-20T10:57:35;31.59;49.34
74178;DHT22;62540;48.456;-4.456;2023-08-20T11:00:03;31.83;49.69
74178;DHT22;62540;48.456;-4.456;2023-08-20T11:02:34;32.03;48.61
74178;DHT22;62540;48.456;-4.456;2023-08-20T11:05:01;32.21;47.97
74178;DHT22;62540;48.456;-4.456;2023-08-20T11:07:28;32.63;49.26
74178;DHT22;62540;48.456;-4.456;2023-08-20T11:09:57;32.92;49.25
74178;DHT22;62540;48.456;-4.456;2023-08-20T11:12:22;32.80;48.67
74178;DHT22;62540;48.456;-4.456;2023-08-20T11:14:47;32.76;48.77
74178;DHT22;62540;48.456;-4.456;2023-08-20T11:17:13;32.93;48.64
74178;DHT22;62540;48.456;-4.456;2023-08-20T11:19:39;33.30;47.52
74178;DHT22;62540;48.456;-4.456;2023-08-20T11:22:05;33.21;46.57
74178;DHT22;62540;48.456;-4.456;2023-08-20T11:24:30;33.14;46.98
74178;DHT22;62540;48.456;-4.456;2023-08-20T11:26:56;33.27;46.22
74178;DHT22;62540;48.456;-4.456;2023-08-20T11:29:21;33.00;46.38
74178;DHT22;62540;48.456;-4.456;2023-08-20T11:31:48;32.90;46.53
74178;DHT22;62540;48.456;-4.456;2023-08-20T11:34:14;32.73;46.93
74178;DHT22;62540;48.456;-4.456;2023-08-20T11:36:40;32.68;46.13
74178;DHT22;62540;48.456;-4.456;2023-08-20T11:39:06;33.00;45.91
74178;DHT22;62540;48.456;-4.456;2023-08-20T11:41:36;33.41;46.64
74178;DHT22;62540;48.456;-4.456;2023-08-20T11:44:01;33.68;46.13
74178;DHT22;62540;48.456;-4.456;2023-08-20T11:46:28;33.57;42.63
74178;DHT22;62540;48.456;-4.456;2023-08-20T11:49:04;33.55;41.71
74178;DHT22;62540;48.456;-4.456;2023-08-20T11:51:35;33.60;43.77
74178;DHT22;62540;48.456;-4.456;2023-08-20T11:54:02;33.77;44.41
74178;DHT22;62540;48.456;-4.456;2023-08-20T11:56:29;33.65;44.57
74178;DHT22;62540;48.456;-4.456;2023-08-20T11:58:59;33.48;43.02
74178;DHT22;62540;48.456;-4.456;2023-08-20T12:01:25;33.04;43.17
74178;DHT22;62540;48.456;-4.456;2023-08-20T12:03:50;33.26;44.37
74178;DHT22;62540;48.456;-4.456;2023-08-20T12:06:19;33.41;44.45
74178;DHT22;62540;48.456;-4.456;2023-08-20T12:08:45;33.55;44.73
74178;DHT22;62540;48.456;-4.456;2023-08-20T12:11:11;33.00;43.10
74178;DHT22;62540;48.456;-4.456;2023-08-20T12:13:36;32.90;44.60
74178;DHT22;62540;48.456;-4.456;2023-08-20T12:16:02;33.10;44.97
74178;DHT22;62540;48.456;-4.456;2023-08-20T12:18:27;33.31;44.29
74178;DHT22;62540;48.456;-4.456;2023-08-20T12:20:52;33.27;43.05
74178;DHT22;62540;48.456;-4.456;2023-08-20T12:23:18;33.20;42.57
74178;DHT22;62540;48.456;-4.456;2023-08-20T12:25:50;33.20;42.83
74178;DHT22;62540;48.456;-4.456;2023-08-20T12:28:16;33.24;43.62
74178;DHT22;62540;48.456;-4.456;2023-08-20T12:30:41;33.43;43.24
74178;DHT22;62540;48.456;-4.456;2023-08-20T12:33:07;33.57;43.97
74178;DHT22;62540;48.456;-4.456;2023-08-20T12:35:32;33.75;44.40
74178;DHT22;62540;48.456;-4.456;2023-08-20T12:37:57;33.77;44.21
74178;DHT22;62540;48.456;-4.456;2023-08-20T12:40:23;33.77;44.02
74178;DHT22;62540;48.456;-4.456;2023-08-20T12:42:48;33.74;43.30
74178;DHT22;62540;48.456;-4.456;2023-08-20T12:45:14;33.62;44.39
74178;DHT22;62540;48.456;-4.456;2023-08-20T12:47:39;33.71;44.57
74178;DHT22;62540;48.456;-4.456;2023-08-20T12:50:05;33.65;44.55
74178;DHT22;62540;48.456;-4.456;2023-08-20T12:52:32;33.53;44.46
74178;DHT22;62540;48.456;-4.456;2023-08-20T12:54:58;33.37;44.35
74178;DHT22;62540;48.456;-4.456;2023-08-20T12:57:23;33.41;44.36
74178;DHT22;62540;48.456;-4.456;2023-08-20T12:59:48;33.51;44.56
74178;DHT22;62540;48.456;-4.456;2023-08-20T13:02:14;33.44;44.28
74178;DHT22;62540;48.456;-4.456;2023-08-20T13:04:41;33.57;44.17
74178;DHT22;62540;48.456;-4.456;2023-08-20T13:07:07;33.65;42.90
74178;DHT22;62540;48.456;-4.456;2023-08-20T13:09:32;33.55;43.69
74178;DHT22;62540;48.456;-4.456;2023-08-20T13:12:00;33.67;43.96
74178;DHT22;62540;48.456;-4.456;2023-08-20T13:14:27;33.69;44.05
74178;DHT22;62540;48.456;-4.456;2023-08-20T13:16:52;33.65;43.70
74178;DHT22;62540;48.456;-4.456;2023-08-20T13:19:18;33.50;44.07
74178;DHT22;62540;48.456;-4.456;2023-08-20T13:21:43;33.53;44.29
74178;DHT22;62540;48.456;-4.456;2023-08-20T13:24:09;33.34;44.27
74178;DHT22;62540;48.456;-4.456;2023-08-20T13:26:34;33.43;44.55
74178;DHT22;62540;48.456;-4.456;2023-08-20T13:29:00;33.34;43.48
74178;DHT22;62540;48.456;-4.456;2023-08-20T13:31:25;33.02;44.46
74178;DHT22;62540;48.456;-4.456;2023-08-20T13:33:51;32.99;44.41
74178;DHT22;62540;48.456;-4.456;2023-08-20T13:36:16;32.90;44.68
74178;DHT22;62540;48.456;-4.456;2023-08-20T13:38:42;32.82;45.00
74178;DHT22;62540;48.456;-4.456;2023-08-20T13:41:07;32.78;44.55
74178;DHT22;62540;48.456;-4.456;2023-08-20T13:43:34;32.59;44.58
74178;DHT22;62540;48.456;-4.456;2023-08-20T13:45:59;32.32;44.12
74178;DHT22;62540;48.456;-4.456;2023-08-20T13:48:24;32.42;45.16
74178;DHT22;62540;48.456;-4.456;2023-08-20T13:50:50;32.51;45.34
74178;DHT22;62540;48.456;-4.456;2023-08-20T13:53:15;32.69;45.32
74178;DHT22;62540;48.456;-4.456;2023-08-20T13:55:41;32.87;45.53
74178;DHT22;62540;48.456;-4.456;2023-08-20T13:58:06;33.06;45.21
74178;DHT22;62540;48.456;-4.456;2023-08-20T14:00:32;33.11;44.93
74178;DHT22;62540;48.456;-4.456;2023-08-20T14:02:58;32.89;44.78
74178;DHT22;62540;48.456;-4.456;2023-08-20T14:05:23;32.79;44.68
74178;DHT22;62540;48.456;-4.456;2023-08-20T14:07:49;32.51;45.53
74178;DHT22;62540;48.456;-4.456;2023-08-20T14:10:15;32.25;45.18
74178;DHT22;62540;48.456;-4.456;2023-08-20T14:12:41;32.13;45.96
74178;DHT22;62540;48.456;-4.456;2023-08-20T14:15:07;32.15;46.01
74178;DHT22;62540;48.456;-4.456;2023-08-20T14:17:32;32.15;46.09
74178;DHT22;62540;48.456;-4.456;2023-08-20T14:19:58;32.15;46.36
74178;DHT22;62540;48.456;-4.456;2023-08-20T14:22:23;32.20;46.51
74178;DHT22;62540;48.456;-4.456;2023-08-20T14:24:48;32.11;45.78
74178;DHT22;62540;48.456;-4.456;2023-08-20T14:27:14;31.91;45.55
74178;DHT22;62540;48.456;-4.456;2023-08-20T14:29:40;31.65;46.47
74178;DHT22;62540;48.456;-4.456;2023-08-20T14:32:06;31.37;46.86
74178;DHT22;62540;48.456;-4.456;2023-08-20T14:34:31;31.19;47.46
74178;DHT22;62540;48.456;-4.456;2023-08-20T14:36:57;31.22;47.58
74178;DHT22;62540;48.456;-4.456;2023-08-20T14:39:22;31.18;47.50
74178;DHT22;62540;48.456;-4.456;2023-08-20T14:41:48;30.85;47.74
74178;DHT22;62540;48.456;-4.456;2023-08-20T14:44:14;30.74;48.02
74178;DHT22;62540;48.456;-4.456;2023-08-20T14:46:39;30.70;47.95
74178;DHT22;62540;48.456;-4.456;2023-08-20T14:49:04;30.61;48.10
74178;DHT22;62540;48.456;-4.456;2023-08-20T14:51:30;30.58;48.38
74178;DHT22;62540;48.456;-4.456;2023-08-20T14:53:55;30.64;48.30
74178;DHT22;62540;48.456;-4.456;2023-08-20T14:56:21;30.56;48.47
74178;DHT22;62540;48.456;-4.456;2023-08-20T14:58:46;30.36;48.87
74178;DHT22;62540;48.456;-4.456;2023-08-20T15:01:11;30.41;48.95
74178;DHT22;62540;48.456;-4.456;2023-08-20T15:03:37;30.51;49.14
74178;DHT22;62540;48.456;-4.456;2023-08-20T15:06:04;30.57;48.92
74178;DHT22;62540;48.456;-4.456;2023-08-20T15:08:29;30.48;49.01
74178;DHT22;62540;48.456;-4.456;2023-08-20T15:10:59;30.24;49.06
74178;DHT22;62540;48.456;-4.456;2023-08-20T15:13:26;30.23;49.23
74178;DHT22;62540;48.456;-4.456;2023-08-20T15:15:53;30.20;48.96
74178;DHT22;62540;48.456;-4.456;2023-08-20T15:18:18;29.86;49.40
74178;DHT22;62540;48.456;-4.456;2023-08-20T15:20:44;29.71;49.78